Time;durP1;ratioP1;P1;durP2;ratioP2;P2;SDS_P1;SDS_P2;PMS_P1;PMS_P2;Temp;Humidity;BMP_temperature;BMP_pressure;BME280_temperature;BME280_humidity;BME280_pressure;Samples;Min_cycle;Max_cycle;Signal;HPM_P1;HPM_P2
2023/12/16 00:00:47;;;;;;;14.97;6.40;;;6.80;98.00;;;;;;5011723;28;20447;-70
2023/12/16 00:03:15;;;;;;;12.60;6.10;;;6.80;98.00;;;;;;5011464;28;20490;-72
2023/12/16 00:05:42;;;;;;;14.50;6.37;;;6.80;98.00;;;;;;5011762;28;20810;-71
2023/12/16 00:08:11;;;;;;;12.93;5.70;;;6.90;98.00;;;;;;5011744;28;20454;-71
2023/12/16 00:10:38;;;;;;;13.00;5.93;;;6.90;98.00;;;;;;5011772;28;20451;-70
2023/12/16 00:13:05;;;;;;;19.10;7.43;;;7.00;98.00;;;;;;4994134;28;20466;-70
2023/12/16 00:15:34;;;;;;;13.20;6.10;;;7.10;98.00;;;;;;5011898;28;20455;-70
2023/12/16 00:18:01;;;;;;;13.37;6.27;;;7.30;98.00;;;;;;4994524;28;20453;-71
2023/12/16 00:20:30;;;;;;;16.70;6.50;;;7.30;98.00;;;;;;5011641;28;20960;-70
2023/12/16 00:22:57;;;;;;;17.80;6.63;;;7.20;98.00;;;;;;4994118;28;20818;-71
2023/12/16 00:25:24;;;;;;;16.30;6.80;;;7.10;98.00;;;;;;5011510;28;20967;-72
2023/12/16 00:27:51;;;;;;;13.33;6.00;;;7.10;98.00;;;;;;5011428;28;20949;-70
2023/12/16 00:30:19;;;;;;;17.53;6.90;;;7.10;98.00;;;;;;5011585;28;20465;-71
2023/12/16 00:32:46;;;;;;;14.00;6.60;;;7.00;98.00;;;;;;4993795;28;20531;-72
2023/12/16 00:35:13;;;;;;;19.33;8.30;;;7.00;98.00;;;;;;5011424;28;20813;-73
2023/12/16 00:37:42;;;;;;;20.53;7.70;;;7.00;98.00;;;;;;5011515;28;20903;-70
2023/12/16 00:40:10;;;;;;;20.93;7.60;;;7.00;98.00;;;;;;5011003;28;20815;-71
2023/12/16 00:42:37;;;;;;;21.63;7.47;;;6.90;98.00;;;;;;5011383;28;20540;-71
2023/12/16 00:45:06;;;;;;;16.03;6.80;;;6.90;98.00;;;;;;5011239;28;21005;-71
2023/12/16 00:47:33;;;;;;;15.30;6.30;;;6.80;98.00;;;;;;5011523;28;20450;-70
2023/12/16 00:50:00;;;;;;;16.37;7.50;;;6.80;98.00;;;;;;4993937;28;20524;-71
2023/12/16 00:52:27;;;;;;;16.47;7.30;;;6.80;98.00;;;;;;5011207;28;20505;-71
2023/12/16 00:54:56;;;;;;;15.73;7.20;;;6.80;98.00;;;;;;5011297;28;20876;-72
2023/12/16 00:57:23;;;;;;;19.37;6.70;;;6.80;98.00;;;;;;5011417;28;20508;-71
2023/12/16 00:59:50;;;;;;;17.90;7.73;;;6.80;98.00;;;;;;5011268;28;20517;-71
2023/12/16 01:02:18;;;;;;;13.73;6.30;;;6.70;98.00;;;;;;5011417;28;20493;-72
2023/12/16 01:04:45;;;;;;;15.73;7.30;;;6.70;98.00;;;;;;4993952;28;20496;-71
2023/12/16 01:07:12;;;;;;;17.13;7.13;;;6.80;98.00;;;;;;5013306;28;20949;-71
2023/12/16 01:09:39;;;;;;;16.57;7.73;;;6.80;98.00;;;;;;4997594;28;20459;-71
2023/12/16 01:12:09;;;;;;;15.17;6.50;;;7.00;98.00;;;;;;5014709;28;20949;-70
2023/12/16 01:14:36;;;;;;;13.27;5.60;;;7.10;98.00;;;;;;5014930;28;20454;-72
2023/12/16 01:17:04;;;;;;;14.13;6.70;;;7.10;98.00;;;;;;4997102;28;20457;-71
2023/12/16 01:19:31;;;;;;;15.87;5.57;;;7.10;98.00;;;;;;4997554;28;20458;-71
2023/12/16 01:21:58;;;;;;;13.30;5.53;;;7.20;98.00;;;;;;5014542;28;20456;-70
2023/12/16 01:24:25;;;;;;;17.53;6.80;;;7.10;98.00;;;;;;5014669;28;20860;-71
2023/12/16 01:26:52;;;;;;;12.17;5.73;;;7.10;98.00;;;;;;4997331;28;20458;-72
2023/12/16 01:29:22;;;;;;;15.33;5.97;;;7.00;98.00;;;;;;4997381;28;20461;-70
2023/12/16 01:31:49;;;;;;;19.63;7.13;;;7.00;98.00;;;;;;5014610;28;20459;-70
2023/12/16 01:34:16;;;;;;;12.70;6.00;;;7.00;98.00;;;;;;5014335;28;20461;-72
2023/12/16 01:36:43;;;;;;;12.23;6.13;;;6.90;98.00;;;;;;5013829;28;20988;-70
2023/12/16 01:39:10;;;;;;;16.73;7.33;;;6.80;98.00;;;;;;5014101;28;20470;-70
2023/12/16 01:41:37;;;;;;;17.87;6.60;;;6.80;98.00;;;;;;5013975;28;20990;-72
2023/12/16 01:44:05;;;;;;;18.87;6.63;;;6.80;98.00;;;;;;4996763;28;20488;-70
2023/12/16 01:46:35;;;;;;;13.83;6.30;;;6.80;98.00;;;;;;5014046;28;20459;-70
2023/12/16 01:49:02;;;;;;;14.30;6.00;;;6.70;98.00;;;;;;5013522;28;20485;-70
2023/12/16 01:51:30;;;;;;;12.93;6.70;;;6.70;98.00;;;;;;5013813;28;20460;-71
2023/12/16 01:53:57;;;;;;;15.50;6.83;;;6.70;98.00;;;;;;5013817;28;20521;-70
2023/12/16 01:56:24;;;;;;;17.33;7.30;;;6.70;98.00;;;;;;4996445;28;20914;-72
2023/12/16 01:58:52;;;;;;;17.20;6.63;;;6.60;98.00;;;;;;5013800;28;20458;-71
2023/12/16 02:01:20;;;;;;;18.40;6.67;;;6.60;98.00;;;;;;5013711;28;20459;-70
2023/12/16 02:03:51;;;;;;;16.03;8.10;;;6.60;98.00;;;;;;5013609;28;20460;-71
2023/12/16 02:06:20;;;;;;;18.30;7.53;;;6.70;98.00;;;;;;4995961;28;20488;-72
2023/12/16 02:08:47;;;;;;;15.37;7.47;;;6.70;98.00;;;;;;4996106;28;20462;-70
2023/12/16 02:11:14;;;;;;;15.70;6.40;;;6.70;98.00;;;;;;5013645;28;20944;-71
2023/12/16 02:13:42;;;;;;;16.37;7.20;;;6.80;98.00;;;;;;5012184;28;20512;-71
2023/12/16 02:16:10;;;;;;;18.40;7.53;;;6.80;98.00;;;;;;5013409;28;20929;-71
2023/12/16 02:18:37;;;;;;;17.93;7.50;;;6.90;98.00;;;;;;5013411;28;20455;-71
2023/12/16 02:21:08;;;;;;;16.27;6.77;;;6.80;98.00;;;;;;5013283;28;20486;-70
2023/12/16 02:23:39;;;;;;;14.57;6.43;;;6.80;98.00;;;;;;4995789;28;20542;-70
2023/12/16 02:26:06;;;;;;;11.70;6.30;;;6.80;98.00;;;;;;5013274;28;20463;-70
2023/12/16 02:28:34;;;;;;;14.20;7.03;;;6.90;98.00;;;;;;5013230;28;20457;-72
2023/12/16 02:31:01;;;;;;;13.27;5.93;;;6.80;98.00;;;;;;5013178;28;20456;-72
2023/12/16 02:33:28;;;;;;;14.50;6.90;;;6.80;98.00;;;;;;5013107;28;20458;-70
2023/12/16 02:35:55;;;;;;;15.10;6.70;;;6.80;98.00;;;;;;5013028;28;20455;-72
2023/12/16 02:38:22;;;;;;;15.70;7.30;;;6.90;98.00;;;;;;4995530;28;20489;-71
2023/12/16 02:40:51;;;;;;;18.60;7.40;;;6.90;98.00;;;;;;5013031;28;20474;-72
2023/12/16 02:43:18;;;;;;;12.67;6.00;;;6.90;98.00;;;;;;5013094;28;20453;-70
2023/12/16 02:45:48;;;;;;;13.97;6.83;;;7.00;98.00;;;;;;5012677;28;20490;-69
2023/12/16 02:48:15;;;;;;;19.13;6.03;;;7.10;98.00;;;;;;4995483;28;20954;-72
2023/12/16 02:50:42;;;;;;;18.37;7.40;;;7.10;98.00;;;;;;5012724;28;20481;-71
2023/12/16 02:53:09;;;;;;;15.27;6.37;;;7.10;98.00;;;;;;5012940;28;20450;-70
2023/12/16 02:55:36;;;;;;;17.10;6.80;;;7.10;98.00;;;;;;5012895;28;20946;-72
2023/12/16 02:58:04;;;;;;;14.90;5.80;;;7.00;98.00;;;;;;5012776;28;20496;-72
2023/12/16 03:00:31;;;;;;;13.00;6.47;;;7.00;98.00;;;;;;5012561;28;20906;-72
2023/12/16 03:02:58;;;;;;;16.23;6.50;;;6.90;98.00;;;;;;5012769;28;20941;-72
2023/12/16 03:05:25;;;;;;;12.20;5.60;;;7.00;98.00;;;;;;4995234;28;20492;-72
2023/12/16 03:07:52;;;;;;;13.93;5.97;;;7.10;98.00;;;;;;5011037;28;20524;-72
2023/12/16 03:10:20;;;;;;;18.80;6.80;;;7.00;98.00;;;;;;4994600;28;20827;-72
2023/12/16 03:12:47;;;;;;;16.80;6.47;;;7.00;98.00;;;;;;5012281;28;20451;-70
2023/12/16 03:15:15;;;;;;;16.60;6.20;;;7.00;98.00;;;;;;5012434;28;20457;-71
2023/12/16 03:17:43;;;;;;;12.23;5.60;;;7.00;98.00;;;;;;5011901;28;20456;-70
2023/12/16 03:20:12;;;;;;;12.80;6.00;;;7.00;98.00;;;;;;5012046;28;20501;-72
2023/12/16 03:22:40;;;;;;;16.43;6.67;;;7.00;98.00;;;;;;5011825;28;20491;-71
2023/12/16 03:25:08;;;;;;;11.80;5.93;;;7.00;98.00;;;;;;5012425;28;20479;-70
2023/12/16 03:27:35;;;;;;;14.43;6.50;;;7.00;98.00;;;;;;4995097;28;20493;-70
2023/12/16 03:30:04;;;;;;;12.87;6.30;;;7.10;98.00;;;;;;4993836;28;20520;-71
2023/12/16 03:32:33;;;;;;;13.43;6.40;;;7.10;98.00;;;;;;4995124;28;20458;-72
2023/12/16 03:35:00;;;;;;;13.43;6.20;;;7.10;98.00;;;;;;5012025;28;20477;-70
2023/12/16 03:37:27;;;;;;;15.77;6.97;;;7.10;98.00;;;;;;5012109;28;20513;-72
2023/12/16 03:39:54;;;;;;;15.17;6.00;;;6.90;98.00;;;;;;5011900;28;20479;-71
2023/12/16 03:42:22;;;;;;;14.10;6.47;;;6.90;98.00;;;;;;5011699;28;20463;-71
2023/12/16 03:44:49;;;;;;;16.07;7.00;;;6.80;98.00;;;;;;4994525;28;20516;-70
2023/12/16 03:47:16;;;;;;;15.00;6.10;;;6.80;98.00;;;;;;5011962;28;20450;-71
2023/12/16 03:49:44;;;;;;;15.00;6.23;;;6.80;98.00;;;;;;5011829;28;20462;-70
2023/12/16 03:52:12;;;;;;;14.70;6.30;;;6.70;98.00;;;;;;5011723;28;20465;-72
2023/12/16 03:54:42;;;;;;;20.53;8.43;;;6.70;98.00;;;;;;5012114;28;20541;-70
2023/12/16 03:57:09;;;;;;;19.80;7.00;;;6.70;98.00;;;;;;4994313;28;20463;-70
2023/12/16 03:59:36;;;;;;;20.63;8.57;;;6.70;98.00;;;;;;5011729;28;20454;-70
2023/12/16 04:02:03;;;;;;;19.87;7.50;;;6.70;98.00;;;;;;4994390;28;20452;-71
2023/12/16 04:04:32;;;;;;;18.63;6.80;;;6.60;98.00;;;;;;5011381;28;20557;-71
2023/12/16 04:07:01;;;;;;;18.20;8.00;;;6.60;98.00;;;;;;5011651;28;20454;-71
2023/12/16 04:09:28;;;;;;;14.90;6.53;;;6.70;98.00;;;;;;5011747;28;20487;-70
2023/12/16 04:11:55;;;;;;;14.40;6.73;;;6.70;98.00;;;;;;5011588;28;20901;-72
2023/12/16 04:14:22;;;;;;;13.10;6.20;;;6.80;98.00;;;;;;5011820;28;20887;-72
2023/12/16 04:16:50;;;;;;;15.57;6.70;;;6.90;98.00;;;;;;5011501;28;20458;-70
2023/12/16 04:19:17;;;;;;;17.10;7.27;;;7.00;98.00;;;;;;5011290;28;20578;-71
2023/12/16 04:21:44;;;;;;;18.00;7.83;;;7.00;98.00;;;;;;4994289;28;20468;-71
2023/12/16 04:24:13;;;;;;;21.30;7.57;;;6.90;98.00;;;;;;5011554;28;20457;-71
2023/12/16 04:26:40;;;;;;;15.80;6.97;;;6.90;98.00;;;;;;5011527;28;20489;-72
2023/12/16 04:29:07;;;;;;;16.30;6.30;;;6.90;98.00;;;;;;5011632;28;20462;-70
2023/12/16 04:31:34;;;;;;;16.73;6.57;;;7.00;98.00;;;;;;5011489;28;20447;-72
2023/12/16 04:34:01;;;;;;;16.40;6.20;;;7.00;98.00;;;;;;5011652;28;20457;-72
2023/12/16 04:36:30;;;;;;;14.17;6.30;;;6.90;98.00;;;;;;5011597;28;20453;-72
2023/12/16 04:38:57;;;;;;;13.17;6.50;;;6.90;98.00;;;;;;5011272;28;20470;-72
2023/12/16 04:41:29;;;;;;;12.70;6.10;;;6.90;98.00;;;;;;5012341;28;20456;-72
2023/12/16 04:43:56;;;;;;;13.00;6.03;;;7.00;98.00;;;;;;5015358;28;20457;-72
2023/12/16 04:46:23;;;;;;;16.17;6.10;;;6.90;98.00;;;;;;5015297;28;20485;-71
2023/12/16 04:48:51;;;;;;;13.43;6.27;;;6.90;98.00;;;;;;5015206;28;20458;-72
2023/12/16 04:51:20;;;;;;;14.93;6.27;;;7.00;98.00;;;;;;5015124;28;20466;-71
2023/12/16 04:53:48;;;;;;;12.60;5.47;;;7.00;98.00;;;;;;5015301;28;20846;-72
2023/12/16 04:56:15;;;;;;;14.90;6.07;;;6.90;98.00;;;;;;5015224;28;20451;-71
2023/12/16 04:58:45;;;;;;;15.43;5.40;;;7.00;98.00;;;;;;4997880;28;20457;-70
2023/12/16 05:01:12;;;;;;;14.67;6.37;;;6.90;98.00;;;;;;5014905;28;20456;-70
2023/12/16 05:03:41;;;;;;;13.67;6.00;;;7.00;98.00;;;;;;5015276;28;20538;-72
2023/12/16 05:06:09;;;;;;;16.33;6.00;;;7.00;98.00;;;;;;5015056;28;20529;-70
2023/12/16 05:08:36;;;;;;;14.10;6.33;;;7.00;98.00;;;;;;5015235;28;20489;-71
2023/12/16 05:11:04;;;;;;;15.20;6.80;;;7.00;98.00;;;;;;5014797;28;20457;-71
2023/12/16 05:13:31;;;;;;;15.27;6.60;;;6.90;98.00;;;;;;5014862;28;20451;-72
2023/12/16 05:15:59;;;;;;;17.87;7.03;;;6.90;98.00;;;;;;5014859;28;20520;-69
2023/12/16 05:18:27;;;;;;;16.40;6.77;;;6.90;98.00;;;;;;5014573;28;20957;-70
2023/12/16 05:20:54;;;;;;;14.20;6.60;;;6.90;98.00;;;;;;4996757;28;20454;-71
2023/12/16 05:23:25;;;;;;;18.33;7.57;;;6.80;98.00;;;;;;5013626;28;20465;-72
2023/12/16 05:25:52;;;;;;;14.30;6.50;;;6.80;98.00;;;;;;5014294;28;20570;-71
2023/12/16 05:28:19;;;;;;;15.23;6.57;;;6.80;98.00;;;;;;5014501;28;20460;-71
2023/12/16 05:30:46;;;;;;;12.23;5.83;;;6.80;98.00;;;;;;5014161;28;20816;-70
2023/12/16 05:33:14;;;;;;;16.23;6.80;;;6.80;98.00;;;;;;5014356;28;20488;-70
2023/12/16 05:35:41;;;;;;;19.03;7.40;;;6.80;98.00;;;;;;5014249;28;20816;-71
2023/12/16 05:38:08;;;;;;;15.40;6.80;;;6.80;98.00;;;;;;5014297;28;20448;-70
2023/12/16 05:40:36;;;;;;;16.87;6.80;;;6.70;98.00;;;;;;5013943;28;20470;-72
2023/12/16 05:43:03;;;;;;;15.37;7.33;;;6.60;98.00;;;;;;4980359;28;20985;-71
2023/12/16 05:45:30;;;;;;;17.03;6.67;;;6.50;98.00;;;;;;4996552;28;20606;-71
2023/12/16 05:47:57;;;;;;;14.23;6.17;;;6.60;98.00;;;;;;5013959;28;20458;-72
2023/12/16 05:50:25;;;;;;;14.10;6.47;;;6.50;98.00;;;;;;5013822;28;20950;-72
2023/12/16 05:52:52;;;;;;;14.90;7.10;;;6.50;98.00;;;;;;5013458;28;20477;-72
2023/12/16 05:55:21;;;;;;;20.20;7.20;;;6.50;98.00;;;;;;4996688;28;20460;-71
2023/12/16 05:57:48;;;;;;;20.30;8.20;;;6.50;98.00;;;;;;5013716;28;21064;-72
2023/12/16 06:00:15;;;;;;;18.70;7.10;;;6.60;98.00;;;;;;4996336;28;20458;-72
2023/12/16 06:02:43;;;;;;;14.70;6.50;;;6.50;98.00;;;;;;5013802;28;20955;-71
2023/12/16 06:05:10;;;;;;;13.83;6.10;;;6.60;98.00;;;;;;5013644;28;21016;-71
2023/12/16 06:07:38;;;;;;;15.63;7.20;;;6.50;98.00;;;;;;5013711;28;20455;-72
2023/12/16 06:10:06;;;;;;;23.53;7.90;;;6.60;98.00;;;;;;5013274;28;20452;-70
2023/12/16 06:12:33;;;;;;;17.67;7.00;;;6.50;98.00;;;;;;5013648;28;20547;-71
2023/12/16 06:15:00;;;;;;;15.60;7.07;;;6.50;98.00;;;;;;5013642;28;20461;-71
2023/12/16 06:17:27;;;;;;;17.17;6.87;;;6.50;98.00;;;;;;5013436;28;20464;-71
2023/12/16 06:19:54;;;;;;;16.57;6.90;;;6.50;98.00;;;;;;5013343;28;20447;-72
2023/12/16 06:22:22;;;;;;;15.77;7.03;;;6.50;98.00;;;;;;5013476;28;20461;-72
2023/12/16 06:24:51;;;;;;;17.90;7.20;;;6.60;98.00;;;;;;4996191;28;20940;-72
2023/12/16 06:27:18;;;;;;;15.00;7.30;;;6.70;98.00;;;;;;5013131;28;20509;-71
2023/12/16 06:29:45;;;;;;;15.47;7.67;;;6.70;98.00;;;;;;4995857;28;20463;-71
2023/12/16 06:32:12;;;;;;;15.60;6.63;;;6.70;98.00;;;;;;5013154;28;20464;-72
2023/12/16 06:34:39;;;;;;;14.93;6.50;;;6.70;98.00;;;;;;5012957;28;20454;-72
2023/12/16 06:37:07;;;;;;;13.23;7.10;;;6.70;98.00;;;;;;5012878;28;20467;-71
2023/12/16 06:39:34;;;;;;;17.77;7.17;;;6.70;98.00;;;;;;4995408;28;20524;-71
2023/12/16 06:42:02;;;;;;;19.00;7.57;;;6.70;98.00;;;;;;5012919;28;20465;-70
2023/12/16 06:44:29;;;;;;;14.10;6.30;;;6.60;98.00;;;;;;5013196;28;20924;-72
2023/12/16 06:46:56;;;;;;;12.73;5.80;;;6.60;98.00;;;;;;5013001;28;20489;-72
2023/12/16 06:49:24;;;;;;;16.10;7.00;;;6.70;98.00;;;;;;5013093;28;20462;-71
2023/12/16 06:51:51;;;;;;;14.70;6.73;;;6.60;98.00;;;;;;4995658;28;20551;-70
2023/12/16 06:54:18;;;;;;;14.93;6.53;;;6.60;98.00;;;;;;5012965;28;20457;-70
2023/12/16 06:56:45;;;;;;;17.20;7.43;;;6.70;98.00;;;;;;5013111;28;20447;-71
2023/12/16 06:59:13;;;;;;;14.73;6.20;;;6.60;98.00;;;;;;5013197;28;20466;-71
2023/12/16 07:01:40;;;;;;;15.50;5.97;;;6.40;98.00;;;;;;5012070;28;20462;-75
2023/12/16 07:04:07;;;;;;;18.40;7.17;;;6.30;98.00;;;;;;5011923;28;20486;-75
2023/12/16 07:06:35;;;;;;;13.27;5.73;;;6.40;98.00;;;;;;5012175;28;20490;-75
2023/12/16 07:09:02;;;;;;;15.60;6.50;;;6.40;98.00;;;;;;5012451;28;20452;-74
2023/12/16 07:11:29;;;;;;;12.77;5.83;;;6.40;98.00;;;;;;5012569;28;20743;-75
2023/12/16 07:13:56;;;;;;;12.67;5.97;;;6.30;98.00;;;;;;5012704;28;20454;-76
2023/12/16 07:16:25;;;;;;;16.77;7.10;;;6.30;98.00;;;;;;4995241;28;20458;-74
2023/12/16 07:18:53;;;;;;;17.07;7.03;;;6.20;98.00;;;;;;5012311;28;20449;-75
2023/12/16 07:21:20;;;;;;;13.10;6.00;;;6.20;98.00;;;;;;5012077;28;20458;-74
2023/12/16 07:23:48;;;;;;;14.27;6.10;;;6.30;98.00;;;;;;5012139;28;21201;-74
2023/12/16 07:26:15;;;;;;;14.33;6.73;;;6.40;98.00;;;;;;5011999;28;20485;-75
2023/12/16 07:28:43;;;;;;;12.90;5.80;;;6.50;98.00;;;;;;5012250;28;20451;-74
2023/12/16 07:31:10;;;;;;;11.07;5.67;;;6.70;98.00;;;;;;4994571;28;20453;-75
2023/12/16 07:33:41;;;;;;;12.93;6.33;;;6.60;98.00;;;;;;5011790;28;20453;-74
2023/12/16 07:36:10;;;;;;;13.07;5.90;;;6.70;98.00;;;;;;4994731;28;20466;-74
2023/12/16 07:38:37;;;;;;;14.47;6.40;;;6.70;98.00;;;;;;5012373;28;20458;-74
2023/12/16 07:41:05;;;;;;;15.77;6.50;;;6.80;98.00;;;;;;5012142;28;20461;-75
2023/12/16 07:43:32;;;;;;;17.97;6.90;;;6.70;98.00;;;;;;5012170;28;20452;-75
2023/12/16 07:45:59;;;;;;;12.00;5.93;;;6.90;98.00;;;;;;5012187;28;20491;-74
2023/12/16 07:48:26;;;;;;;22.83;7.30;;;7.00;98.00;;;;;;5012187;28;20450;-74
2023/12/16 07:50:54;;;;;;;16.33;7.47;;;6.90;98.00;;;;;;5012137;28;20462;-74
2023/12/16 07:53:22;;;;;;;14.57;6.80;;;6.70;98.00;;;;;;5012079;28;21013;-75
2023/12/16 07:55:49;;;;;;;13.00;6.23;;;6.60;98.00;;;;;;5011890;28;20481;-74
2023/12/16 07:58:17;;;;;;;16.87;6.33;;;6.60;98.00;;;;;;5011840;28;20891;-74
2023/12/16 08:00:45;;;;;;;14.10;6.10;;;6.60;98.00;;;;;;5011951;28;20490;-74
2023/12/16 08:03:12;;;;;;;14.80;6.20;;;6.70;98.00;;;;;;5012038;28;20449;-75
2023/12/16 08:05:41;;;;;;;14.10;5.70;;;6.60;98.00;;;;;;5011893;28;20462;-75
2023/12/16 08:08:11;;;;;;;12.20;6.03;;;6.60;98.00;;;;;;5011963;28;20546;-74
2023/12/16 08:10:39;;;;;;;11.27;5.37;;;6.70;98.00;;;;;;5011996;28;20462;-73
2023/12/16 08:13:07;;;;;;;15.90;6.03;;;6.70;98.00;;;;;;5011809;28;20941;-74
2023/12/16 08:15:34;;;;;;;13.03;5.90;;;6.70;98.00;;;;;;4995599;28;20516;-73
2023/12/16 08:18:01;;;;;;;12.50;5.60;;;6.70;98.00;;;;;;5016041;28;20478;-74
2023/12/16 08:20:28;;;;;;;13.50;5.90;;;6.80;98.00;;;;;;5016031;28;20457;-74
2023/12/16 08:22:56;;;;;;;16.93;5.90;;;7.00;98.00;;;;;;5015845;28;20483;-74
2023/12/16 08:25:24;;;;;;;10.93;5.30;;;7.00;98.00;;;;;;4998838;28;20928;-74
2023/12/16 08:27:51;;;;;;;11.03;5.70;;;7.00;98.00;;;;;;4998365;28;20502;-74
2023/12/16 08:30:18;;;;;;;12.10;5.90;;;6.90;98.00;;;;;;5015871;28;20659;-73
2023/12/16 08:32:45;;;;;;;13.60;5.50;;;7.00;98.00;;;;;;5015770;28;20465;-74
2023/12/16 08:35:13;;;;;;;12.00;6.07;;;6.90;98.00;;;;;;5015700;28;20964;-74
2023/12/16 08:37:40;;;;;;;13.87;5.70;;;6.90;98.00;;;;;;5013239;28;20463;-73
2023/12/16 08:40:09;;;;;;;16.17;6.33;;;6.80;98.00;;;;;;5013974;28;20471;-73
2023/12/16 08:42:42;;;;;;;12.83;5.90;;;6.80;98.00;;;;;;5013751;28;20970;-73
2023/12/16 08:45:10;;;;;;;13.90;6.57;;;6.80;98.00;;;;;;5014632;28;20452;-73
2023/12/16 08:47:37;;;;;;;14.40;6.30;;;6.80;98.00;;;;;;5015114;28;20494;-74
2023/12/16 08:50:06;;;;;;;12.13;5.50;;;6.90;98.00;;;;;;5015586;28;20461;-73
2023/12/16 08:52:33;;;;;;;13.07;5.77;;;6.90;98.00;;;;;;5015333;28;20458;-75
2023/12/16 08:55:00;;;;;;;13.73;6.30;;;7.00;98.00;;;;;;4997840;28;20455;-75
2023/12/16 08:57:28;;;;;;;15.43;6.47;;;7.10;98.00;;;;;;5014973;28;20465;-73
2023/12/16 08:59:58;;;;;;;13.90;6.47;;;7.20;98.00;;;;;;5015166;28;20511;-73
2023/12/16 09:02:25;;;;;;;11.23;5.60;;;7.10;98.00;;;;;;5015140;28;20484;-73
2023/12/16 09:04:52;;;;;;;10.50;5.63;;;7.20;98.00;;;;;;5014879;28;20455;-72
2023/12/16 09:07:19;;;;;;;10.83;5.10;;;7.20;98.00;;;;;;5014743;28;20483;-73
2023/12/16 09:09:47;;;;;;;11.27;5.50;;;7.20;98.00;;;;;;5015105;28;20449;-72
2023/12/16 09:12:14;;;;;;;14.13;6.07;;;7.20;98.00;;;;;;4986898;28;20464;-74
2023/12/16 09:14:43;;;;;;;12.27;5.50;;;7.20;98.00;;;;;;4993533;28;20463;-72
2023/12/16 09:17:13;;;;;;;15.47;5.90;;;7.40;98.00;;;;;;4994761;28;20490;-74
2023/12/16 09:19:40;;;;;;;15.77;6.10;;;7.40;98.00;;;;;;4995269;28;20463;-73
2023/12/16 09:22:07;;;;;;;12.47;5.60;;;7.60;98.00;;;;;;4995276;28;20469;-73
2023/12/16 09:24:34;;;;;;;12.77;5.90;;;7.60;98.00;;;;;;4995270;28;20979;-74
2023/12/16 09:27:01;;;;;;;15.87;5.87;;;7.60;98.00;;;;;;4993764;28;20491;-74
2023/12/16 09:29:28;;;;;;;10.90;5.23;;;7.70;98.00;;;;;;4994793;28;20976;-73
2023/12/16 09:31:55;;;;;;;10.63;5.40;;;7.70;98.00;;;;;;4995012;28;20464;-72
2023/12/16 09:34:23;;;;;;;11.27;5.80;;;7.80;98.00;;;;;;4994615;28;20514;-74
2023/12/16 09:36:50;;;;;;;11.97;5.60;;;7.80;98.00;;;;;;4995201;28;20451;-74
2023/12/16 09:39:17;;;;;;;14.23;6.10;;;7.90;98.00;;;;;;4994558;28;20463;-73
2023/12/16 09:41:45;;;;;;;10.10;5.20;;;7.80;98.00;;;;;;4994658;28;20466;-73
2023/12/16 09:44:16;;;;;;;10.30;5.03;;;7.80;98.00;;;;;;4994727;28;20981;-73
2023/12/16 09:46:44;;;;;;;14.83;6.40;;;7.80;98.00;;;;;;4994629;28;20585;-74
2023/12/16 09:49:13;;;;;;;11.93;5.20;;;8.00;98.00;;;;;;4994615;28;20546;-74
2023/12/16 09:51:43;;;;;;;13.03;5.57;;;8.10;98.00;;;;;;4994596;28;21217;-74
2023/12/16 09:54:10;;;;;;;14.10;6.87;;;8.00;98.00;;;;;;4994670;28;20453;-74
2023/12/16 09:56:39;;;;;;;12.63;5.90;;;8.10;98.00;;;;;;4994343;28;20949;-74
2023/12/16 09:59:08;;;;;;;17.53;5.80;;;8.10;98.00;;;;;;4994508;28;20502;-73
2023/12/16 10:01:35;;;;;;;13.37;6.00;;;8.00;98.00;;;;;;4994351;28;20463;-74
2023/12/16 10:04:02;;;;;;;11.37;5.57;;;8.00;98.00;;;;;;4994327;28;20449;-74
2023/12/16 10:06:29;;;;;;;12.27;6.03;;;8.10;98.00;;;;;;4994421;28;20491;-73
2023/12/16 10:08:58;;;;;;;12.60;6.57;;;8.30;98.00;;;;;;4994294;28;20461;-74
2023/12/16 10:11:25;;;;;;;13.80;6.63;;;8.20;98.00;;;;;;4994379;28;20491;-73
2023/12/16 10:13:57;;;;;;;10.83;5.57;;;8.30;98.00;;;;;;4994224;28;20454;-74
2023/12/16 10:16:25;;;;;;;14.47;6.10;;;8.30;98.00;;;;;;4994262;28;20471;-74
2023/12/16 10:18:53;;;;;;;15.57;6.80;;;8.30;98.00;;;;;;4994345;28;20491;-73
2023/12/16 10:21:25;;;;;;;12.70;5.73;;;8.30;98.00;;;;;;4994155;28;20494;-74
2023/12/16 10:23:52;;;;;;;11.07;5.77;;;8.40;98.00;;;;;;4994219;28;20463;-74
2023/12/16 10:26:21;;;;;;;13.37;5.50;;;8.40;98.00;;;;;;4994332;28;21104;-73
2023/12/16 10:28:49;;;;;;;11.77;5.90;;;8.50;98.00;;;;;;4994096;28;20826;-74
2023/12/16 10:31:18;;;;;;;10.30;4.87;;;8.50;98.00;;;;;;4994132;28;20464;-74
2023/12/16 10:33:45;;;;;;;12.63;5.00;;;8.50;98.00;;;;;;4994212;28;20471;-75
2023/12/16 10:36:12;;;;;;;10.23;4.80;;;8.40;98.00;;;;;;4993930;28;20544;-74
2023/12/16 10:38:40;;;;;;;11.87;5.50;;;8.40;98.00;;;;;;4992800;28;20455;-73
2023/12/16 10:41:08;;;;;;;9.97;5.20;;;8.60;98.00;;;;;;4994162;28;20456;-73
2023/12/16 10:43:37;;;;;;;13.80;5.00;;;8.70;98.00;;;;;;4993793;28;20463;-74
2023/12/16 10:46:07;;;;;;;14.07;5.30;;;8.80;98.00;;;;;;4993639;28;20456;-74
2023/12/16 10:48:35;;;;;;;10.13;5.20;;;8.90;98.00;;;;;;4993916;28;20514;-73
2023/12/16 10:51:05;;;;;;;9.30;4.93;;;8.90;98.00;;;;;;4993393;28;20884;-74
2023/12/16 10:53:39;;;;;;;10.67;5.00;;;8.90;98.00;;;;;;4993394;28;20457;-74
2023/12/16 10:56:17;;;;;;;11.77;5.30;;;8.90;98.00;;;;;;4993369;28;20464;-74
2023/12/16 10:58:55;;;;;;;13.33;5.80;;;8.90;98.00;;;;;;4993534;28;20487;-73
2023/12/16 11:01:25;;;;;;;15.50;5.63;;;8.80;98.00;;;;;;4993354;28;20475;-74
2023/12/16 11:03:57;;;;;;;9.87;4.77;;;8.90;98.00;;;;;;4993072;28;20945;-73
2023/12/16 11:06:34;;;;;;;10.27;5.20;;;9.00;98.00;;;;;;4993169;28;20456;-74
2023/12/16 11:09:03;;;;;;;10.33;4.93;;;9.10;98.00;;;;;;4993259;28;20455;-73
2023/12/16 11:11:31;;;;;;;11.67;4.87;;;9.00;98.00;;;;;;4992900;28;20878;-74
2023/12/16 11:14:02;;;;;;;8.90;4.90;;;9.10;98.00;;;;;;4992947;28;20457;-73
2023/12/16 11:16:38;;;;;;;9.80;4.40;;;9.10;98.00;;;;;;4993166;28;20451;-73
2023/12/16 11:19:06;;;;;;;11.30;4.87;;;9.00;98.00;;;;;;4993274;28;20460;-74
2023/12/16 11:21:34;;;;;;;11.57;4.80;;;8.80;98.00;;;;;;4992798;28;20955;-65
2023/12/16 11:24:02;;;;;;;9.33;5.00;;;8.60;98.00;;;;;;4993025;28;20463;-76
2023/12/16 11:26:31;;;;;;;10.77;4.93;;;8.50;98.00;;;;;;4993959;28;20462;-77
2023/12/16 11:29:05;;;;;;;10.33;5.10;;;8.50;98.00;;;;;;4993173;28;20463;-73
2023/12/16 11:31:32;;;;;;;10.90;5.00;;;8.50;98.00;;;;;;4955119;28;20483;-76
2023/12/16 11:33:59;;;;;;;10.40;4.80;;;8.50;98.00;;;;;;4973248;28;20484;-75
2023/12/16 11:36:49;;;;;;;9.30;4.73;;;8.60;98.00;;;;;;4973212;28;20456;-75
2023/12/16 11:39:40;;;;;;;14.40;5.50;;;8.60;98.00;;;;;;4973142;28;20474;-74
2023/12/16 11:42:08;;;;;;;9.10;4.60;;;8.50;98.00;;;;;;4972891;28;20550;-75
2023/12/16 11:44:56;;;;;;;8.70;4.73;;;8.50;98.00;;;;;;4973164;28;20529;-75
2023/12/16 11:47:25;;;;;;;11.20;5.00;;;8.50;98.00;;;;;;4973198;28;20491;-73
2023/12/16 11:49:53;;;;;;;12.57;5.20;;;8.50;98.00;;;;;;4972631;28;20548;-75
2023/12/16 11:52:21;;;;;;;10.97;5.10;;;8.40;98.00;;;;;;4981216;28;20457;-74
2023/12/16 11:54:54;;;;;;;9.40;4.87;;;8.40;98.00;;;;;;4992446;28;21004;-74
2023/12/16 11:57:21;;;;;;;15.20;5.97;;;8.60;98.00;;;;;;4992529;28;20451;-75
2023/12/16 11:59:48;;;;;;;12.93;6.07;;;8.60;98.00;;;;;;4992375;28;20939;-74
2023/12/16 12:02:17;;;;;;;11.90;5.37;;;8.80;98.00;;;;;;4992324;28;20931;-74
2023/12/16 12:04:44;;;;;;;11.87;5.50;;;8.80;98.00;;;;;;4992386;28;20471;-74
2023/12/16 12:07:12;;;;;;;12.07;5.70;;;8.60;98.00;;;;;;4992013;28;20487;-74
2023/12/16 12:09:41;;;;;;;12.47;5.10;;;8.50;98.00;;;;;;4992245;28;20455;-74
2023/12/16 12:12:08;;;;;;;14.10;6.23;;;8.40;98.00;;;;;;4992334;28;20559;-74
2023/12/16 12:14:38;;;;;;;12.10;5.73;;;8.30;98.00;;;;;;4992354;28;20952;-74
2023/12/16 12:17:06;;;;;;;14.03;6.03;;;8.20;98.00;;;;;;4992173;28;20467;-74
2023/12/16 12:19:34;;;;;;;11.87;5.13;;;8.30;98.00;;;;;;4992398;28;20456;-74
2023/12/16 12:22:02;;;;;;;10.17;4.77;;;8.40;98.00;;;;;;4992214;28;20447;-75
2023/12/16 12:24:29;;;;;;;10.73;4.70;;;8.40;98.00;;;;;;4992443;28;20505;-75
2023/12/16 12:26:56;;;;;;;13.07;5.37;;;8.60;98.00;;;;;;4992108;28;20460;-74
2023/12/16 12:29:25;;;;;;;11.80;5.33;;;8.60;98.00;;;;;;4991838;28;20461;-75
2023/12/16 12:31:53;;;;;;;9.77;5.10;;;8.60;98.00;;;;;;4974767;28;20460;-74
2023/12/16 12:34:21;;;;;;;9.20;4.60;;;8.60;98.00;;;;;;4992137;28;20543;-77
2023/12/16 12:36:55;;;;;;;13.70;5.17;;;8.80;98.00;;;;;;4991853;28;20463;-76
2023/12/16 12:39:23;;;;;;;18.33;5.50;;;8.80;98.00;;;;;;4991958;28;20495;-75
2023/12/16 12:42:01;;;;;;;9.10;4.60;;;8.80;98.00;;;;;;4991964;28;20473;-75
2023/12/16 12:44:30;;;;;;;15.00;5.10;;;9.00;98.00;;;;;;4991907;28;20501;-74
2023/12/16 12:46:58;;;;;;;8.13;4.30;;;9.20;98.00;;;;;;4991550;28;20456;-75
2023/12/16 12:49:31;;;;;;;12.37;4.83;;;9.30;98.00;;;;;;4970346;28;20457;-76
2023/12/16 12:52:00;;;;;;;9.57;4.60;;;9.30;98.00;;;;;;4972129;28;20476;-79